sensor_id;sensor_type;location;lat;lon;timestamp;P1;durP1;ratioP1;P2;durP2;ratioP2
59786;SDS011;45672;51.612;5.536;2022-09-01T00:01:35;3.67;;;1.40;;
59786;SDS011;45672;51.612;5.536;2022-09-01T00:04:03;4.25;;;1.30;;
59786;SDS011;45672;51.612;5.536;2022-09-01T00:06:30;1.60;;;1.30;;
59786;SDS011;45672;51.612;5.536;2022-09-01T00:08:59;3.28;;;1.13;;
59786;SDS011;45672;51.612;5.536;2022-09-01T00:11:27;2.67;;;1.35;;
59786;SDS011;45672;51.612;5.536;2022-09-01T00:13:54;6.82;;;1.40;;
59786;SDS011;45672;51.612;5.536;2022-09-01T00:16:20;1.35;;;1.00;;
59786;SDS011;45672;51.612;5.536;2022-09-01T00:18:47;3.15;;;1.20;;
59786;SDS011;45672;51.612;5.536;2022-09-01T00:21:18;3.53;;;1.35;;
59786;SDS011;45672;51.612;5.536;2022-09-01T00:23:52;2.28;;;1.30;;
59786;SDS011;45672;51.612;5.536;2022-09-01T00:26:17;8.02;;;1.25;;
59786;SDS011;45672;51.612;5.536;2022-09-01T00:28:43;4.82;;;1.42;;
59786;SDS011;45672;51.612;5.536;2022-09-01T00:31:08;2.55;;;1.30;;
59786;SDS011;45672;51.612;5.536;2022-09-01T00:33:39;4.82;;;1.38;;
59786;SDS011;45672;51.612;5.536;2022-09-01T00:36:05;1.63;;;1.42;;
59786;SDS011;45672;51.612;5.536;2022-09-01T00:38:30;1.70;;;1.60;;
59786;SDS011;45672;51.612;5.536;2022-09-01T00:40:56;5.22;;;1.52;;
59786;SDS011;45672;51.612;5.536;2022-09-01T00:43:23;1.67;;;1.40;;
59786;SDS011;45672;51.612;5.536;2022-09-01T00:46:00;1.33;;;1.23;;
59786;SDS011;45672;51.612;5.536;2022-09-01T00:48:25;5.13;;;1.63;;
59786;SDS011;45672;51.612;5.536;2022-09-01T00:50:51;1.45;;;1.33;;
59786;SDS011;45672;51.612;5.536;2022-09-01T00:53:16;3.45;;;1.30;;
59786;SDS011;45672;51.612;5.536;2022-09-01T00:55:42;3.58;;;1.60;;
59786;SDS011;45672;51.612;5.536;2022-09-01T00:58:08;3.10;;;1.30;;
59786;SDS011;45672;51.612;5.536;2022-09-01T01:00:35;2.08;;;1.50;;
59786;SDS011;45672;51.612;5.536;2022-09-01T01:03:05;1.52;;;1.25;;
59786;SDS011;45672;51.612;5.536;2022-09-01T01:05:36;2.05;;;1.20;;
59786;SDS011;45672;51.612;5.536;2022-09-01T01:08:05;2.03;;;1.20;;
59786;SDS011;45672;51.612;5.536;2022-09-01T01:10:32;4.07;;;1.50;;
59786;SDS011;45672;51.612;5.536;2022-09-01T01:13:05;5.13;;;1.52;;
59786;SDS011;45672;51.612;5.536;2022-09-01T01:15:34;1.83;;;1.40;;
59786;SDS011;45672;51.612;5.536;2022-09-01T01:18:00;3.10;;;1.67;;
59786;SDS011;45672;51.612;5.536;2022-09-01T01:20:26;1.35;;;1.25;;
59786;SDS011;45672;51.612;5.536;2022-09-01T01:23:30;7.75;;;1.65;;
59786;SDS011;45672;51.612;5.536;2022-09-01T01:26:01;6.03;;;1.65;;
59786;SDS011;45672;51.612;5.536;2022-09-01T01:28:35;2.80;;;1.50;;
59786;SDS011;45672;51.612;5.536;2022-09-01T01:31:05;1.73;;;1.40;;
59786;SDS011;45672;51.612;5.536;2022-09-01T01:33:41;1.52;;;1.40;;
59786;SDS011;45672;51.612;5.536;2022-09-01T01:38:40;2.75;;;1.55;;
59786;SDS011;45672;51.612;5.536;2022-09-01T01:41:07;1.50;;;1.40;;
59786;SDS011;45672;51.612;5.536;2022-09-01T01:43:37;1.55;;;1.45;;
59786;SDS011;45672;51.612;5.536;2022-09-01T01:46:03;3.00;;;1.40;;
59786;SDS011;45672;51.612;5.536;2022-09-01T01:48:30;2.40;;;1.58;;
59786;SDS011;45672;51.612;5.536;2022-09-01T01:50:59;2.38;;;1.50;;
59786;SDS011;45672;51.612;5.536;2022-09-01T01:53:25;4.25;;;1.90;;
59786;SDS011;45672;51.612;5.536;2022-09-01T01:55:51;1.67;;;1.50;;
59786;SDS011;45672;51.612;5.536;2022-09-01T01:58:17;7.07;;;1.60;;
59786;SDS011;45672;51.612;5.536;2022-09-01T02:00:45;1.70;;;1.60;;
59786;SDS011;45672;51.612;5.536;2022-09-01T02:03:12;6.30;;;1.73;;
59786;SDS011;45672;51.612;5.536;2022-09-01T02:05:44;1.67;;;1.58;;
59786;SDS011;45672;51.612;5.536;2022-09-01T02:08:11;6.10;;;1.70;;
59786;SDS011;45672;51.612;5.536;2022-09-01T02:10:40;3.08;;;1.88;;
59786;SDS011;45672;51.612;5.536;2022-09-01T02:13:08;3.42;;;1.80;;
59786;SDS011;45672;51.612;5.536;2022-09-01T02:15:40;2.50;;;1.60;;
59786;SDS011;45672;51.612;5.536;2022-09-01T02:18:14;1.65;;;1.50;;
59786;SDS011;45672;51.612;5.536;2022-09-01T02:20:44;4.95;;;1.70;;
59786;SDS011;45672;51.612;5.536;2022-09-01T02:23:12;3.38;;;1.50;;
59786;SDS011;45672;51.612;5.536;2022-09-01T02:25:40;3.17;;;1.45;;
59786;SDS011;45672;51.612;5.536;2022-09-01T02:28:08;1.80;;;1.70;;
59786;SDS011;45672;51.612;5.536;2022-09-01T02:30:40;4.82;;;1.92;;
59786;SDS011;45672;51.612;5.536;2022-09-01T02:33:06;3.40;;;1.70;;
59786;SDS011;45672;51.612;5.536;2022-09-01T02:35:33;7.50;;;2.00;;
59786;SDS011;45672;51.612;5.536;2022-09-01T02:38:02;2.72;;;2.13;;
59786;SDS011;45672;51.612;5.536;2022-09-01T02:40:29;3.55;;;1.60;;
59786;SDS011;45672;51.612;5.536;2022-09-01T02:42:56;3.70;;;2.00;;
59786;SDS011;45672;51.612;5.536;2022-09-01T02:45:23;4.25;;;1.88;;
59786;SDS011;45672;51.612;5.536;2022-09-01T02:47:49;3.10;;;1.88;;
59786;SDS011;45672;51.612;5.536;2022-09-01T02:50:15;5.25;;;1.92;;
59786;SDS011;45672;51.612;5.536;2022-09-01T02:52:43;13.30;;;2.00;;
59786;SDS011;45672;51.612;5.536;2022-09-01T02:55:12;2.00;;;1.90;;
59786;SDS011;45672;51.612;5.536;2022-09-01T02:57:38;4.03;;;2.10;;
59786;SDS011;45672;51.612;5.536;2022-09-01T03:00:05;2.58;;;1.77;;
59786;SDS011;45672;51.612;5.536;2022-09-01T03:02:44;2.17;;;2.03;;
59786;SDS011;45672;51.612;5.536;2022-09-01T03:05:11;6.63;;;2.28;;
59786;SDS011;45672;51.612;5.536;2022-09-01T03:07:39;2.47;;;1.92;;
59786;SDS011;45672;51.612;5.536;2022-09-01T03:10:06;2.17;;;1.98;;
59786;SDS011;45672;51.612;5.536;2022-09-01T03:12:33;6.35;;;2.10;;
59786;SDS011;45672;51.612;5.536;2022-09-01T03:14:59;4.80;;;2.15;;
59786;SDS011;45672;51.612;5.536;2022-09-01T03:17:24;5.82;;;1.80;;
59786;SDS011;45672;51.612;5.536;2022-09-01T03:19:49;2.22;;;2.10;;
59786;SDS011;45672;51.612;5.536;2022-09-01T03:22:15;5.47;;;2.40;;
59786;SDS011;45672;51.612;5.536;2022-09-01T03:24:41;2.90;;;2.35;;
59786;SDS011;45672;51.612;5.536;2022-09-01T03:27:07;2.20;;;2.00;;
59786;SDS011;45672;51.612;5.536;2022-09-01T03:29:35;2.38;;;1.92;;
59786;SDS011;45672;51.612;5.536;2022-09-01T03:32:02;3.08;;;2.20;;
59786;SDS011;45672;51.612;5.536;2022-09-01T03:34:28;5.38;;;2.10;;
59786;SDS011;45672;51.612;5.536;2022-09-01T03:36:53;3.65;;;2.17;;
59786;SDS011;45672;51.612;5.536;2022-09-01T03:39:19;4.32;;;2.10;;
59786;SDS011;45672;51.612;5.536;2022-09-01T03:41:45;7.47;;;2.30;;
59786;SDS011;45672;51.612;5.536;2022-09-01T03:44:11;4.10;;;2.38;;
59786;SDS011;45672;51.612;5.536;2022-09-01T03:46:37;3.83;;;2.10;;
59786;SDS011;45672;51.612;5.536;2022-09-01T03:49:04;4.40;;;2.40;;
59786;SDS011;45672;51.612;5.536;2022-09-01T03:51:39;4.80;;;2.00;;
59786;SDS011;45672;51.612;5.536;2022-09-01T03:54:06;3.33;;;2.47;;
59786;SDS011;45672;51.612;5.536;2022-09-01T03:56:32;2.83;;;2.25;;
59786;SDS011;45672;51.612;5.536;2022-09-01T03:58:58;2.38;;;2.10;;
59786;SDS011;45672;51.612;5.536;2022-09-01T04:01:24;2.92;;;2.30;;
59786;SDS011;45672;51.612;5.536;2022-09-01T04:03:51;4.85;;;2.20;;
59786;SDS011;45672;51.612;5.536;2022-09-01T04:06:17;2.30;;;2.10;;
59786;SDS011;45672;51.612;5.536;2022-09-01T04:08:44;3.20;;;1.75;;
59786;SDS011;45672;51.612;5.536;2022-09-01T04:11:14;2.88;;;2.00;;
59786;SDS011;45672;51.612;5.536;2022-09-01T04:13:47;2.15;;;2.05;;
59786;SDS011;45672;51.612;5.536;2022-09-01T04:16:21;2.08;;;1.98;;
59786;SDS011;45672;51.612;5.536;2022-09-01T04:19:13;5.63;;;2.13;;
59786;SDS011;45672;51.612;5.536;2022-09-01T04:21:41;7.88;;;2.53;;
59786;SDS011;45672;51.612;5.536;2022-09-01T04:24:08;4.18;;;2.55;;
59786;SDS011;45672;51.612;5.536;2022-09-01T04:26:34;4.95;;;2.15;;
59786;SDS011;45672;51.612;5.536;2022-09-01T04:29:00;6.47;;;2.33;;
59786;SDS011;45672;51.612;5.536;2022-09-01T04:31:25;7.45;;;1.90;;
59786;SDS011;45672;51.612;5.536;2022-09-01T04:33:51;4.43;;;2.13;;
59786;SDS011;45672;51.612;5.536;2022-09-01T04:38:48;5.93;;;2.28;;
59786;SDS011;45672;51.612;5.536;2022-09-01T04:41:18;3.78;;;2.30;;
59786;SDS011;45672;51.612;5.536;2022-09-01T04:43:46;5.55;;;2.65;;
59786;SDS011;45672;51.612;5.536;2022-09-01T04:46:13;2.45;;;2.25;;
59786;SDS011;45672;51.612;5.536;2022-09-01T04:48:41;5.75;;;2.50;;
59786;SDS011;45672;51.612;5.536;2022-09-01T04:51:09;6.85;;;2.38;;
59786;SDS011;45672;51.612;5.536;2022-09-01T04:53:36;3.50;;;2.30;;
59786;SDS011;45672;51.612;5.536;2022-09-01T04:56:03;5.53;;;2.28;;
59786;SDS011;45672;51.612;5.536;2022-09-01T04:58:29;3.60;;;2.38;;
59786;SDS011;45672;51.612;5.536;2022-09-01T05:00:55;10.40;;;2.50;;
59786;SDS011;45672;51.612;5.536;2022-09-01T05:03:20;4.05;;;2.38;;
59786;SDS011;45672;51.612;5.536;2022-09-01T05:05:47;6.20;;;2.47;;
59786;SDS011;45672;51.612;5.536;2022-09-01T05:08:14;4.07;;;2.50;;
59786;SDS011;45672;51.612;5.536;2022-09-01T05:10:43;5.60;;;2.28;;
59786;SDS011;45672;51.612;5.536;2022-09-01T05:13:11;4.75;;;2.60;;
59786;SDS011;45672;51.612;5.536;2022-09-01T05:15:42;2.92;;;2.67;;
59786;SDS011;45672;51.612;5.536;2022-09-01T05:18:14;2.92;;;2.50;;
59786;SDS011;45672;51.612;5.536;2022-09-01T05:20:47;8.75;;;2.50;;
59786;SDS011;45672;51.612;5.536;2022-09-01T05:23:14;4.13;;;2.63;;
59786;SDS011;45672;51.612;5.536;2022-09-01T05:25:43;2.72;;;2.38;;
59786;SDS011;45672;51.612;5.536;2022-09-01T05:28:12;3.17;;;2.20;;
59786;SDS011;45672;51.612;5.536;2022-09-01T05:30:38;2.53;;;2.33;;
59786;SDS011;45672;51.612;5.536;2022-09-01T05:33:04;6.32;;;2.50;;
59786;SDS011;45672;51.612;5.536;2022-09-01T05:35:36;4.50;;;2.50;;
59786;SDS011;45672;51.612;5.536;2022-09-01T05:38:05;6.93;;;2.40;;
59786;SDS011;45672;51.612;5.536;2022-09-01T05:40:34;4.93;;;2.35;;
59786;SDS011;45672;51.612;5.536;2022-09-01T05:43:05;5.40;;;2.67;;
59786;SDS011;45672;51.612;5.536;2022-09-01T05:45:34;5.22;;;2.58;;
59786;SDS011;45672;51.612;5.536;2022-09-01T05:47:59;4.32;;;2.53;;
59786;SDS011;45672;51.612;5.536;2022-09-01T05:50:25;7.65;;;2.10;;
59786;SDS011;45672;51.612;5.536;2022-09-01T05:52:51;5.57;;;2.67;;
59786;SDS011;45672;51.612;5.536;2022-09-01T05:55:16;9.95;;;2.22;;
59786;SDS011;45672;51.612;5.536;2022-09-01T05:57:41;11.57;;;2.65;;
59786;SDS011;45672;51.612;5.536;2022-09-01T06:00:07;3.75;;;2.55;;
59786;SDS011;45672;51.612;5.536;2022-09-01T06:02:37;2.92;;;2.20;;
59786;SDS011;45672;51.612;5.536;2022-09-01T06:05:04;2.35;;;2.05;;
59786;SDS011;45672;51.612;5.536;2022-09-01T06:07:30;3.20;;;2.25;;
59786;SDS011;45672;51.612;5.536;2022-09-01T06:09:56;7.03;;;2.45;;
59786;SDS011;45672;51.612;5.536;2022-09-01T06:12:23;3.72;;;2.30;;
59786;SDS011;45672;51.612;5.536;2022-09-01T06:14:50;6.55;;;2.45;;
59786;SDS011;45672;51.612;5.536;2022-09-01T06:17:20;5.03;;;2.35;;
59786;SDS011;45672;51.612;5.536;2022-09-01T06:19:49;12.65;;;2.60;;
59786;SDS011;45672;51.612;5.536;2022-09-01T06:22:19;5.03;;;2.17;;
59786;SDS011;45672;51.612;5.536;2022-09-01T06:24:47;5.95;;;2.45;;
59786;SDS011;45672;51.612;5.536;2022-09-01T06:27:13;3.75;;;2.40;;
59786;SDS011;45672;51.612;5.536;2022-09-01T06:29:41;3.35;;;2.10;;
59786;SDS011;45672;51.612;5.536;2022-09-01T06:32:08;5.90;;;2.10;;
59786;SDS011;45672;51.612;5.536;2022-09-01T06:34:34;7.50;;;2.35;;
59786;SDS011;45672;51.612;5.536;2022-09-01T06:37:03;3.28;;;1.80;;
59786;SDS011;45672;51.612;5.536;2022-09-01T06:39:29;7.38;;;2.22;;
59786;SDS011;45672;51.612;5.536;2022-09-01T06:41:58;3.72;;;2.00;;
59786;SDS011;45672;51.612;5.536;2022-09-01T06:44:26;6.93;;;1.92;;
59786;SDS011;45672;51.612;5.536;2022-09-01T06:46:54;6.63;;;1.92;;
59786;SDS011;45672;51.612;5.536;2022-09-01T06:49:20;5.90;;;2.20;;
59786;SDS011;45672;51.612;5.536;2022-09-01T06:51:57;13.23;;;1.98;;
59786;SDS011;45672;51.612;5.536;2022-09-01T06:54:22;5.82;;;1.92;;
59786;SDS011;45672;51.612;5.536;2022-09-01T06:56:49;4.22;;;1.80;;
59786;SDS011;45672;51.612;5.536;2022-09-01T06:59:15;3.00;;;1.88;;
59786;SDS011;45672;51.612;5.536;2022-09-01T07:01:40;7.25;;;1.90;;
59786;SDS011;45672;51.612;5.536;2022-09-01T07:04:06;5.80;;;1.98;;
59786;SDS011;45672;51.612;5.536;2022-09-01T07:06:31;4.88;;;2.08;;
59786;SDS011;45672;51.612;5.536;2022-09-01T07:08:59;3.30;;;1.50;;
59786;SDS011;45672;51.612;5.536;2022-09-01T07:11:26;4.45;;;1.80;;
59786;SDS011;45672;51.612;5.536;2022-09-01T07:13:56;8.93;;;1.80;;
59786;SDS011;45672;51.612;5.536;2022-09-01T07:16:25;12.18;;;1.83;;
59786;SDS011;45672;51.612;5.536;2022-09-01T07:18:54;6.13;;;2.05;;
59786;SDS011;45672;51.612;5.536;2022-09-01T07:21:22;3.20;;;1.65;;
59786;SDS011;45672;51.612;5.536;2022-09-01T07:23:49;8.73;;;1.80;;
59786;SDS011;45672;51.612;5.536;2022-09-01T07:26:15;6.80;;;1.73;;
59786;SDS011;45672;51.612;5.536;2022-09-01T07:31:18;6.40;;;1.65;;
59786;SDS011;45672;51.612;5.536;2022-09-01T07:33:49;9.82;;;1.80;;
59786;SDS011;45672;51.612;5.536;2022-09-01T07:36:17;6.65;;;1.70;;
59786;SDS011;45672;51.612;5.536;2022-09-01T07:38:43;8.90;;;1.67;;
59786;SDS011;45672;51.612;5.536;2022-09-01T07:41:09;3.65;;;1.70;;
59786;SDS011;45672;51.612;5.536;2022-09-01T07:43:38;3.78;;;1.80;;
59786;SDS011;45672;51.612;5.536;2022-09-01T07:46:06;2.92;;;1.40;;
59786;SDS011;45672;51.612;5.536;2022-09-01T07:48:32;2.67;;;1.40;;
59786;SDS011;45672;51.612;5.536;2022-09-01T07:50:58;3.25;;;1.70;;
59786;SDS011;45672;51.612;5.536;2022-09-01T07:53:27;11.55;;;1.80;;
59786;SDS011;45672;51.612;5.536;2022-09-01T07:55:55;9.45;;;2.25;;
59786;SDS011;45672;51.612;5.536;2022-09-01T07:58:23;4.57;;;1.75;;
59786;SDS011;45672;51.612;5.536;2022-09-01T08:00:51;6.93;;;1.63;;
59786;SDS011;45672;51.612;5.536;2022-09-01T08:03:19;5.90;;;1.60;;
59786;SDS011;45672;51.612;5.536;2022-09-01T08:05:47;11.75;;;1.70;;
59786;SDS011;45672;51.612;5.536;2022-09-01T08:08:15;7.20;;;1.70;;
59786;SDS011;45672;51.612;5.536;2022-09-01T08:10:41;5.82;;;1.50;;
59786;SDS011;45672;51.612;5.536;2022-09-01T08:13:08;8.30;;;1.45;;
59786;SDS011;45672;51.612;5.536;2022-09-01T08:15:34;11.13;;;1.38;;
59786;SDS011;45672;51.612;5.536;2022-09-01T08:17:59;4.93;;;1.45;;
59786;SDS011;45672;51.612;5.536;2022-09-01T08:20:25;2.88;;;1.80;;
59786;SDS011;45672;51.612;5.536;2022-09-01T08:22:50;10.73;;;1.45;;
59786;SDS011;45672;51.612;5.536;2022-09-01T08:25:15;3.47;;;1.67;;
59786;SDS011;45672;51.612;5.536;2022-09-01T08:27:41;2.58;;;1.40;;
59786;SDS011;45672;51.612;5.536;2022-09-01T08:30:08;7.18;;;1.67;;
59786;SDS011;45672;51.612;5.536;2022-09-01T08:32:37;5.72;;;1.70;;
59786;SDS011;45672;51.612;5.536;2022-09-01T08:35:06;6.85;;;1.60;;
59786;SDS011;45672;51.612;5.536;2022-09-01T08:37:33;7.05;;;1.83;;
59786;SDS011;45672;51.612;5.536;2022-09-01T08:39:58;6.53;;;1.40;;
59786;SDS011;45672;51.612;5.536;2022-09-01T08:42:34;3.65;;;1.60;;
59786;SDS011;45672;51.612;5.536;2022-09-01T08:48:29;3.92;;;1.50;;
59786;SDS011;45672;51.612;5.536;2022-09-01T08:51:13;6.25;;;1.50;;
59786;SDS011;45672;51.612;5.536;2022-09-01T08:53:46;6.63;;;1.35;;
59786;SDS011;45672;51.612;5.536;2022-09-01T08:56:23;5.28;;;1.45;;
59786;SDS011;45672;51.612;5.536;2022-09-01T08:58:52;5.88;;;1.40;;
59786;SDS011;45672;51.612;5.536;2022-09-01T09:01:22;5.53;;;1.50;;
59786;SDS011;45672;51.612;5.536;2022-09-01T09:06:41;6.28;;;1.38;;
59786;SDS011;45672;51.612;5.536;2022-09-01T09:09:28;12.85;;;1.65;;
59786;SDS011;45672;51.612;5.536;2022-09-01T09:12:25;3.55;;;1.52;;
59786;SDS011;45672;51.612;5.536;2022-09-01T09:15:09;3.55;;;1.35;;
59786;SDS011;45672;51.612;5.536;2022-09-01T09:17:57;5.47;;;1.30;;
59786;SDS011;45672;51.612;5.536;2022-09-01T09:20:29;2.85;;;1.17;;
59786;SDS011;45672;51.612;5.536;2022-09-01T09:22:55;3.50;;;1.27;;
59786;SDS011;45672;51.612;5.536;2022-09-01T09:25:20;4.05;;;1.30;;
59786;SDS011;45672;51.612;5.536;2022-09-01T09:27:48;6.50;;;1.35;;
59786;SDS011;45672;51.612;5.536;2022-09-01T09:30:19;2.55;;;1.20;;
59786;SDS011;45672;51.612;5.536;2022-09-01T09:33:00;1.98;;;1.08;;
59786;SDS011;45672;51.612;5.536;2022-09-01T09:38:39;1.85;;;1.20;;
59786;SDS011;45672;51.612;5.536;2022-09-01T09:41:15;6.10;;;1.13;;
59786;SDS011;45672;51.612;5.536;2022-09-01T09:43:44;5.82;;;1.10;;
59786;SDS011;45672;51.612;5.536;2022-09-01T09:46:24;5.28;;;1.13;;
59786;SDS011;45672;51.612;5.536;2022-09-01T09:49:05;2.83;;;1.00;;
59786;SDS011;45672;51.612;5.536;2022-09-01T09:52:19;6.40;;;0.90;;
59786;SDS011;45672;51.612;5.536;2022-09-01T09:57:46;2.70;;;1.05;;
59786;SDS011;45672;51.612;5.536;2022-09-01T10:00:29;2.15;;;0.88;;
59786;SDS011;45672;51.612;5.536;2022-09-01T10:03:17;8.27;;;0.90;;
59786;SDS011;45672;51.612;5.536;2022-09-01T10:06:11;2.35;;;0.70;;
59786;SDS011;45672;51.612;5.536;2022-09-01T10:08:54;5.43;;;0.80;;
59786;SDS011;45672;51.612;5.536;2022-09-01T10:11:32;1.55;;;0.80;;
59786;SDS011;45672;51.612;5.536;2022-09-01T10:14:09;4.88;;;0.85;;
59786;SDS011;45672;51.612;5.536;2022-09-01T10:16:57;5.43;;;0.75;;
59786;SDS011;45672;51.612;5.536;2022-09-01T10:19:37;1.17;;;0.80;;
59786;SDS011;45672;51.612;5.536;2022-09-01T10:22:32;2.33;;;0.80;;
59786;SDS011;45672;51.612;5.536;2022-09-01T10:25:01;0.80;;;0.80;;
59786;SDS011;45672;51.612;5.536;2022-09-01T10:27:35;1.30;;;0.80;;
59786;SDS011;45672;51.612;5.536;2022-09-01T10:30:06;6.90;;;1.00;;
59786;SDS011;45672;51.612;5.536;2022-09-01T10:32:43;7.10;;;1.08;;
59786;SDS011;45672;51.612;5.536;2022-09-01T10:37:48;4.03;;;0.88;;
59786;SDS011;45672;51.612;5.536;2022-09-01T10:43:21;3.63;;;1.02;;
59786;SDS011;45672;51.612;5.536;2022-09-01T10:46:00;3.63;;;1.20;;
59786;SDS011;45672;51.612;5.536;2022-09-01T10:48:34;4.85;;;1.15;;
59786;SDS011;45672;51.612;5.536;2022-09-01T10:53:39;3.65;;;0.90;;
59786;SDS011;45672;51.612;5.536;2022-09-01T10:56:12;2.55;;;0.70;;
59786;SDS011;45672;51.612;5.536;2022-09-01T10:58:43;5.07;;;1.10;;
59786;SDS011;45672;51.612;5.536;2022-09-01T11:01:16;0.85;;;0.80;;
59786;SDS011;45672;51.612;5.536;2022-09-01T11:06:58;3.33;;;0.90;;
59786;SDS011;45672;51.612;5.536;2022-09-01T11:11:59;3.00;;;0.80;;
59786;SDS011;45672;51.612;5.536;2022-09-01T11:14:51;1.20;;;0.70;;
59786;SDS011;45672;51.612;5.536;2022-09-01T11:17:22;4.28;;;1.23;;
59786;SDS011;45672;51.612;5.536;2022-09-01T11:19:57;2.97;;;0.80;;
59786;SDS011;45672;51.612;5.536;2022-09-01T11:22:57;2.47;;;0.90;;
59786;SDS011;45672;51.612;5.536;2022-09-01T11:25:30;3.53;;;0.80;;
59786;SDS011;45672;51.612;5.536;2022-09-01T11:27:58;1.38;;;1.00;;
59786;SDS011;45672;51.612;5.536;2022-09-01T11:32:56;4.55;;;0.70;;
59786;SDS011;45672;51.612;5.536;2022-09-01T11:37:55;3.17;;;0.75;;
59786;SDS011;45672;51.612;5.536;2022-09-01T11:40:26;2.85;;;0.80;;
59786;SDS011;45672;51.612;5.536;2022-09-01T11:42:55;5.55;;;0.85;;
59786;SDS011;45672;51.612;5.536;2022-09-01T11:45:26;0.95;;;0.80;;
59786;SDS011;45672;51.612;5.536;2022-09-01T11:47:57;1.63;;;0.90;;
59786;SDS011;45672;51.612;5.536;2022-09-01T11:50:30;1.05;;;0.90;;
59786;SDS011;45672;51.612;5.536;2022-09-01T11:53:07;4.15;;;0.80;;
59786;SDS011;45672;51.612;5.536;2022-09-01T11:55:38;2.05;;;0.95;;
59786;SDS011;45672;51.612;5.536;2022-09-01T11:58:10;0.65;;;0.65;;
59786;SDS011;45672;51.612;5.536;2022-09-01T12:00:39;1.25;;;0.90;;
59786;SDS011;45672;51.612;5.536;2022-09-01T12:03:18;0.85;;;0.65;;
59786;SDS011;45672;51.612;5.536;2022-09-01T12:05:53;0.70;;;0.70;;
59786;SDS011;45672;51.612;5.536;2022-09-01T12:08:24;0.70;;;0.68;;
59786;SDS011;45672;51.612;5.536;2022-09-01T12:18:54;2.95;;;0.70;;
59786;SDS011;45672;51.612;5.536;2022-09-01T12:24:12;1.15;;;0.80;;
59786;SDS011;45672;51.612;5.536;2022-09-01T12:26:38;2.92;;;0.90;;
59786;SDS011;45672;51.612;5.536;2022-09-01T12:29:05;0.77;;;0.70;;
59786;SDS011;45672;51.612;5.536;2022-09-01T12:31:31;10.35;;;1.20;;
59786;SDS011;45672;51.612;5.536;2022-09-01T12:33:57;10.52;;;0.75;;
59786;SDS011;45672;51.612;5.536;2022-09-01T12:36:24;2.88;;;0.80;;
59786;SDS011;45672;51.612;5.536;2022-09-01T12:38:51;5.10;;;1.00;;
59786;SDS011;45672;51.612;5.536;2022-09-01T12:44:25;0.77;;;0.68;;
59786;SDS011;45672;51.612;5.536;2022-09-01T12:46:58;1.83;;;0.80;;
59786;SDS011;45672;51.612;5.536;2022-09-01T12:49:34;4.32;;;0.82;;
59786;SDS011;45672;51.612;5.536;2022-09-01T12:54:42;2.55;;;0.80;;
59786;SDS011;45672;51.612;5.536;2022-09-01T12:57:08;1.77;;;0.70;;
59786;SDS011;45672;51.612;5.536;2022-09-01T12:59:34;3.13;;;0.65;;
59786;SDS011;45672;51.612;5.536;2022-09-01T13:05:16;3.42;;;1.63;;
59786;SDS011;45672;51.612;5.536;2022-09-01T13:07:42;0.98;;;0.80;;
59786;SDS011;45672;51.612;5.536;2022-09-01T13:10:08;2.45;;;0.80;;
59786;SDS011;45672;51.612;5.536;2022-09-01T13:12:33;5.28;;;1.23;;
59786;SDS011;45672;51.612;5.536;2022-09-01T13:15:07;1.08;;;0.70;;
59786;SDS011;45672;51.612;5.536;2022-09-01T13:17:34;2.10;;;0.75;;
59786;SDS011;45672;51.612;5.536;2022-09-01T13:19:59;2.50;;;0.80;;
59786;SDS011;45672;51.612;5.536;2022-09-01T13:22:24;4.93;;;0.95;;
59786;SDS011;45672;51.612;5.536;2022-09-01T13:24:49;3.88;;;1.10;;
59786;SDS011;45672;51.612;5.536;2022-09-01T13:27:15;2.42;;;0.80;;
59786;SDS011;45672;51.612;5.536;2022-09-01T13:29:40;0.82;;;0.82;;
59786;SDS011;45672;51.612;5.536;2022-09-01T13:32:06;3.83;;;0.85;;
59786;SDS011;45672;51.612;5.536;2022-09-01T13:34:32;1.67;;;0.95;;
59786;SDS011;45672;51.612;5.536;2022-09-01T13:36:58;1.00;;;0.80;;
59786;SDS011;45672;51.612;5.536;2022-09-01T13:39:23;1.65;;;0.60;;
59786;SDS011;45672;51.612;5.536;2022-09-01T13:41:49;2.00;;;0.80;;
59786;SDS011;45672;51.612;5.536;2022-09-01T13:44:14;2.63;;;0.80;;
59786;SDS011;45672;51.612;5.536;2022-09-01T13:46:40;3.33;;;0.82;;
59786;SDS011;45672;51.612;5.536;2022-09-01T13:49:08;0.98;;;0.88;;
59786;SDS011;45672;51.612;5.536;2022-09-01T13:51:34;2.10;;;0.98;;
59786;SDS011;45672;51.612;5.536;2022-09-01T13:54:00;1.38;;;0.68;;
59786;SDS011;45672;51.612;5.536;2022-09-01T13:56:26;5.25;;;1.10;;
59786;SDS011;45672;51.612;5.536;2022-09-01T13:58:51;4.18;;;0.77;;
59786;SDS011;45672;51.612;5.536;2022-09-01T14:01:16;5.03;;;1.13;;
59786;SDS011;45672;51.612;5.536;2022-09-01T14:03:42;2.60;;;0.80;;
59786;SDS011;45672;51.612;5.536;2022-09-01T14:06:08;3.88;;;0.80;;
59786;SDS011;45672;51.612;5.536;2022-09-01T14:08:33;6.65;;;1.88;;
59786;SDS011;45672;51.612;5.536;2022-09-01T14:10:59;5.72;;;0.98;;
59786;SDS011;45672;51.612;5.536;2022-09-01T14:13:25;5.68;;;0.93;;
59786;SDS011;45672;51.612;5.536;2022-09-01T14:15:51;1.10;;;0.90;;
59786;SDS011;45672;51.612;5.536;2022-09-01T14:18:18;1.63;;;0.82;;
59786;SDS011;45672;51.612;5.536;2022-09-01T14:20:45;4.75;;;0.90;;
59786;SDS011;45672;51.612;5.536;2022-09-01T14:23:12;4.80;;;0.90;;
59786;SDS011;45672;51.612;5.536;2022-09-01T14:25:42;5.43;;;1.00;;
59786;SDS011;45672;51.612;5.536;2022-09-01T14:28:09;2.13;;;0.87;;
59786;SDS011;45672;51.612;5.536;2022-09-01T14:30:35;2.53;;;0.80;;
59786;SDS011;45672;51.612;5.536;2022-09-01T14:33:01;3.63;;;0.90;;
59786;SDS011;45672;51.612;5.536;2022-09-01T14:35:27;6.70;;;1.00;;
59786;SDS011;45672;51.612;5.536;2022-09-01T14:37:53;2.92;;;1.05;;
59786;SDS011;45672;51.612;5.536;2022-09-01T14:40:19;2.78;;;0.90;;
59786;SDS011;45672;51.612;5.536;2022-09-01T14:42:47;1.45;;;1.05;;
59786;SDS011;45672;51.612;5.536;2022-09-01T14:45:14;3.42;;;1.00;;
59786;SDS011;45672;51.612;5.536;2022-09-01T14:47:45;2.58;;;1.17;;
59786;SDS011;45672;51.612;5.536;2022-09-01T14:50:11;1.17;;;1.02;;
59786;SDS011;45672;51.612;5.536;2022-09-01T14:52:37;6.72;;;1.30;;
59786;SDS011;45672;51.612;5.536;2022-09-01T14:55:03;4.72;;;1.02;;
59786;SDS011;45672;51.612;5.536;2022-09-01T14:57:28;5.18;;;1.35;;
59786;SDS011;45672;51.612;5.536;2022-09-01T14:59:54;4.47;;;1.10;;
59786;SDS011;45672;51.612;5.536;2022-09-01T15:02:19;12.07;;;1.17;;
59786;SDS011;45672;51.612;5.536;2022-09-01T15:04:45;9.73;;;1.42;;
59786;SDS011;45672;51.612;5.536;2022-09-01T15:07:11;3.35;;;1.20;;
59786;SDS011;45672;51.612;5.536;2022-09-01T15:09:39;3.17;;;1.02;;
59786;SDS011;45672;51.612;5.536;2022-09-01T15:12:06;3.28;;;1.10;;
59786;SDS011;45672;51.612;5.536;2022-09-01T15:14:33;2.97;;;1.13;;
59786;SDS011;45672;51.612;5.536;2022-09-01T15:16:58;3.58;;;1.00;;
59786;SDS011;45672;51.612;5.536;2022-09-01T15:19:24;2.08;;;0.93;;
59786;SDS011;45672;51.612;5.536;2022-09-01T15:21:52;3.47;;;1.00;;
59786;SDS011;45672;51.612;5.536;2022-09-01T15:24:18;4.22;;;1.20;;
59786;SDS011;45672;51.612;5.536;2022-09-01T15:26:43;12.43;;;5.57;;
59786;SDS011;45672;51.612;5.536;2022-09-01T15:29:10;5.00;;;1.60;;
59786;SDS011;45672;51.612;5.536;2022-09-01T15:31:37;5.93;;;2.80;;
59786;SDS011;45672;51.612;5.536;2022-09-01T15:34:03;3.95;;;1.52;;
59786;SDS011;45672;51.612;5.536;2022-09-01T15:36:30;6.85;;;1.90;;
59786;SDS011;45672;51.612;5.536;2022-09-01T15:38:58;3.20;;;1.73;;
59786;SDS011;45672;51.612;5.536;2022-09-01T15:41:25;1.35;;;1.02;;
59786;SDS011;45672;51.612;5.536;2022-09-01T15:43:51;1.83;;;1.33;;
59786;SDS011;45672;51.612;5.536;2022-09-01T15:46:17;4.43;;;1.83;;
59786;SDS011;45672;51.612;5.536;2022-09-01T15:48:43;2.65;;;1.83;;
59786;SDS011;45672;51.612;5.536;2022-09-01T15:53:46;3.58;;;1.42;;
59786;SDS011;45672;51.612;5.536;2022-09-01T15:56:16;5.10;;;1.25;;
59786;SDS011;45672;51.612;5.536;2022-09-01T15:58:42;2.05;;;1.20;;
59786;SDS011;45672;51.612;5.536;2022-09-01T16:01:08;3.80;;;1.20;;